sensor_id;sensor_type;location;lat;lon;timestamp;P1;durP1;ratioP1;P2;durP2;ratioP2
23498;SDS011;11926;48.120;11.562;2023-06-19T00:02:07;15.48;;;9.00;;
23498;SDS011;11926;48.120;11.562;2023-06-19T00:04:55;12.38;;;9.38;;
23498;SDS011;11926;48.120;11.562;2023-06-19T00:07:44;12.38;;;9.23;;
23498;SDS011;11926;48.120;11.562;2023-06-19T00:10:31;11.57;;;9.60;;
23498;SDS011;11926;48.120;11.562;2023-06-19T00:13:18;11.55;;;8.85;;
23498;SDS011;11926;48.120;11.562;2023-06-19T00:16:06;17.98;;;9.32;;
23498;SDS011;11926;48.120;11.562;2023-06-19T00:18:53;13.02;;;8.93;;
23498;SDS011;11926;48.120;11.562;2023-06-19T00:21:41;13.20;;;9.43;;
23498;SDS011;11926;48.120;11.562;2023-06-19T00:24:30;17.58;;;9.68;;
23498;SDS011;11926;48.120;11.562;2023-06-19T00:27:17;14.15;;;8.88;;
23498;SDS011;11926;48.120;11.562;2023-06-19T00:30:05;12.55;;;8.85;;
23498;SDS011;11926;48.120;11.562;2023-06-19T00:32:53;13.55;;;8.32;;
23498;SDS011;11926;48.120;11.562;2023-06-19T00:36:08;11.10;;;9.25;;
23498;SDS011;11926;48.120;11.562;2023-06-19T00:38:56;10.68;;;8.80;;
23498;SDS011;11926;48.120;11.562;2023-06-19T00:41:44;10.70;;;8.88;;
23498;SDS011;11926;48.120;11.562;2023-06-19T00:44:33;10.80;;;8.13;;
23498;SDS011;11926;48.120;11.562;2023-06-19T00:47:20;10.55;;;8.95;;
23498;SDS011;11926;48.120;11.562;2023-06-19T00:50:08;11.77;;;9.35;;
23498;SDS011;11926;48.120;11.562;2023-06-19T00:52:55;10.38;;;8.20;;
23498;SDS011;11926;48.120;11.562;2023-06-19T00:55:43;14.02;;;9.25;;
23498;SDS011;11926;48.120;11.562;2023-06-19T00:58:32;10.48;;;8.27;;
23498;SDS011;11926;48.120;11.562;2023-06-19T01:01:20;11.65;;;8.48;;
23498;SDS011;11926;48.120;11.562;2023-06-19T01:04:09;11.45;;;8.50;;
23498;SDS011;11926;48.120;11.562;2023-06-19T01:06:57;9.82;;;7.88;;
23498;SDS011;11926;48.120;11.562;2023-06-19T01:09:50;10.32;;;8.75;;
23498;SDS011;11926;48.120;11.562;2023-06-19T01:12:44;10.13;;;8.32;;
23498;SDS011;11926;48.120;11.562;2023-06-19T01:15:42;11.85;;;8.52;;
23498;SDS011;11926;48.120;11.562;2023-06-19T01:18:31;10.30;;;7.78;;
23498;SDS011;11926;48.120;11.562;2023-06-19T01:21:20;14.07;;;8.23;;
23498;SDS011;11926;48.120;11.562;2023-06-19T01:24:09;11.48;;;8.57;;
23498;SDS011;11926;48.120;11.562;2023-06-19T01:26:57;11.80;;;8.75;;
23498;SDS011;11926;48.120;11.562;2023-06-19T01:29:44;11.15;;;8.90;;
23498;SDS011;11926;48.120;11.562;2023-06-19T01:32:34;12.98;;;8.43;;
23498;SDS011;11926;48.120;11.562;2023-06-19T01:35:28;11.50;;;8.73;;
23498;SDS011;11926;48.120;11.562;2023-06-19T01:38:19;11.95;;;8.55;;
23498;SDS011;11926;48.120;11.562;2023-06-19T01:41:11;10.45;;;8.40;;
23498;SDS011;11926;48.120;11.562;2023-06-19T01:44:02;12.10;;;8.23;;
23498;SDS011;11926;48.120;11.562;2023-06-19T01:46:50;10.30;;;8.30;;
23498;SDS011;11926;48.120;11.562;2023-06-19T01:49:37;11.65;;;8.52;;
23498;SDS011;11926;48.120;11.562;2023-06-19T01:52:24;11.02;;;9.15;;
23498;SDS011;11926;48.120;11.562;2023-06-19T01:55:11;11.35;;;8.75;;
23498;SDS011;11926;48.120;11.562;2023-06-19T01:58:00;11.95;;;9.02;;
23498;SDS011;11926;48.120;11.562;2023-06-19T02:00:47;10.30;;;8.63;;
23498;SDS011;11926;48.120;11.562;2023-06-19T02:03:35;11.25;;;8.40;;
23498;SDS011;11926;48.120;11.562;2023-06-19T02:06:22;14.75;;;9.57;;
23498;SDS011;11926;48.120;11.562;2023-06-19T02:09:09;11.80;;;8.43;;
23498;SDS011;11926;48.120;11.562;2023-06-19T02:11:56;10.00;;;8.45;;
23498;SDS011;11926;48.120;11.562;2023-06-19T02:14:46;12.50;;;8.65;;
23498;SDS011;11926;48.120;11.562;2023-06-19T02:17:33;10.45;;;8.52;;
23498;SDS011;11926;48.120;11.562;2023-06-19T02:20:21;9.82;;;8.25;;
23498;SDS011;11926;48.120;11.562;2023-06-19T02:23:13;13.27;;;8.55;;
23498;SDS011;11926;48.120;11.562;2023-06-19T02:26:00;14.98;;;9.45;;
23498;SDS011;11926;48.120;11.562;2023-06-19T02:28:48;12.02;;;9.05;;
23498;SDS011;11926;48.120;11.562;2023-06-19T02:31:36;12.57;;;9.43;;
23498;SDS011;11926;48.120;11.562;2023-06-19T02:34:24;11.23;;;8.63;;
23498;SDS011;11926;48.120;11.562;2023-06-19T02:37:11;11.48;;;9.27;;
23498;SDS011;11926;48.120;11.562;2023-06-19T02:39:58;10.60;;;8.82;;
23498;SDS011;11926;48.120;11.562;2023-06-19T02:42:45;11.48;;;9.07;;
23498;SDS011;11926;48.120;11.562;2023-06-19T02:45:32;13.80;;;9.77;;
23498;SDS011;11926;48.120;11.562;2023-06-19T02:48:21;17.10;;;11.02;;
23498;SDS011;11926;48.120;11.562;2023-06-19T02:51:09;14.05;;;11.38;;
23498;SDS011;11926;48.120;11.562;2023-06-19T02:53:56;14.95;;;11.77;;
23498;SDS011;11926;48.120;11.562;2023-06-19T02:56:43;14.57;;;11.95;;
23498;SDS011;11926;48.120;11.562;2023-06-19T02:59:35;15.35;;;11.98;;
23498;SDS011;11926;48.120;11.562;2023-06-19T03:02:22;14.77;;;11.05;;
23498;SDS011;11926;48.120;11.562;2023-06-19T03:05:11;12.85;;;10.93;;
23498;SDS011;11926;48.120;11.562;2023-06-19T03:08:00;14.80;;;11.98;;
23498;SDS011;11926;48.120;11.562;2023-06-19T03:10:48;12.75;;;11.43;;
23498;SDS011;11926;48.120;11.562;2023-06-19T03:13:43;14.95;;;11.48;;
23498;SDS011;11926;48.120;11.562;2023-06-19T03:16:32;14.15;;;11.70;;
23498;SDS011;11926;48.120;11.562;2023-06-19T03:19:19;16.40;;;12.07;;
23498;SDS011;11926;48.120;11.562;2023-06-19T03:22:09;13.73;;;11.90;;
23498;SDS011;11926;48.120;11.562;2023-06-19T03:24:56;13.80;;;11.93;;
23498;SDS011;11926;48.120;11.562;2023-06-19T03:27:44;13.50;;;11.95;;
23498;SDS011;11926;48.120;11.562;2023-06-19T03:30:31;14.27;;;11.95;;
23498;SDS011;11926;48.120;11.562;2023-06-19T03:33:18;15.43;;;12.10;;
23498;SDS011;11926;48.120;11.562;2023-06-19T03:36:06;14.05;;;11.93;;
23498;SDS011;11926;48.120;11.562;2023-06-19T03:39:06;14.88;;;11.27;;
23498;SDS011;11926;48.120;11.562;2023-06-19T03:41:54;14.90;;;11.50;;
23498;SDS011;11926;48.120;11.562;2023-06-19T03:44:41;14.60;;;11.80;;
23498;SDS011;11926;48.120;11.562;2023-06-19T03:47:28;14.00;;;10.93;;
23498;SDS011;11926;48.120;11.562;2023-06-19T03:50:14;13.70;;;11.20;;
23498;SDS011;11926;48.120;11.562;2023-06-19T03:53:06;15.00;;;11.57;;
23498;SDS011;11926;48.120;11.562;2023-06-19T03:55:54;12.95;;;11.05;;
23498;SDS011;11926;48.120;11.562;2023-06-19T03:58:42;14.18;;;10.98;;
23498;SDS011;11926;48.120;11.562;2023-06-19T04:01:30;15.30;;;11.02;;
23498;SDS011;11926;48.120;11.562;2023-06-19T04:04:17;13.18;;;10.68;;
23498;SDS011;11926;48.120;11.562;2023-06-19T04:07:06;13.18;;;11.05;;
23498;SDS011;11926;48.120;11.562;2023-06-19T04:09:53;12.77;;;10.90;;
23498;SDS011;11926;48.120;11.562;2023-06-19T04:12:41;12.93;;;10.30;;
23498;SDS011;11926;48.120;11.562;2023-06-19T04:15:31;14.50;;;10.30;;
23498;SDS011;11926;48.120;11.562;2023-06-19T04:18:18;15.43;;;10.35;;
23498;SDS011;11926;48.120;11.562;2023-06-19T04:21:05;16.80;;;11.23;;
23498;SDS011;11926;48.120;11.562;2023-06-19T04:23:53;12.93;;;10.60;;
23498;SDS011;11926;48.120;11.562;2023-06-19T04:26:40;13.52;;;10.40;;
23498;SDS011;11926;48.120;11.562;2023-06-19T04:29:29;16.20;;;10.82;;
23498;SDS011;11926;48.120;11.562;2023-06-19T04:32:16;11.85;;;10.32;;
23498;SDS011;11926;48.120;11.562;2023-06-19T04:35:04;14.27;;;11.68;;
23498;SDS011;11926;48.120;11.562;2023-06-19T04:37:52;14.73;;;10.23;;
23498;SDS011;11926;48.120;11.562;2023-06-19T04:40:40;14.63;;;10.52;;
23498;SDS011;11926;48.120;11.562;2023-06-19T04:43:28;13.55;;;11.20;;
23498;SDS011;11926;48.120;11.562;2023-06-19T04:46:16;14.43;;;10.88;;
23498;SDS011;11926;48.120;11.562;2023-06-19T04:49:05;17.17;;;11.25;;
23498;SDS011;11926;48.120;11.562;2023-06-19T04:51:54;13.23;;;11.02;;
23498;SDS011;11926;48.120;11.562;2023-06-19T04:54:41;13.30;;;10.43;;
23498;SDS011;11926;48.120;11.562;2023-06-19T04:57:27;11.90;;;10.20;;
23498;SDS011;11926;48.120;11.562;2023-06-19T05:00:15;16.45;;;11.30;;
23498;SDS011;11926;48.120;11.562;2023-06-19T05:03:06;14.75;;;9.95;;
23498;SDS011;11926;48.120;11.562;2023-06-19T05:05:53;14.75;;;10.27;;
23498;SDS011;11926;48.120;11.562;2023-06-19T05:08:40;13.60;;;10.65;;
23498;SDS011;11926;48.120;11.562;2023-06-19T05:11:28;14.93;;;10.20;;
23498;SDS011;11926;48.120;11.562;2023-06-19T05:14:15;15.48;;;10.02;;
23498;SDS011;11926;48.120;11.562;2023-06-19T05:17:02;15.25;;;10.80;;
23498;SDS011;11926;48.120;11.562;2023-06-19T05:19:50;14.85;;;9.75;;
23498;SDS011;11926;48.120;11.562;2023-06-19T05:22:37;13.02;;;10.98;;
23498;SDS011;11926;48.120;11.562;2023-06-19T05:25:25;11.73;;;9.77;;
23498;SDS011;11926;48.120;11.562;2023-06-19T05:28:12;14.95;;;10.57;;
23498;SDS011;11926;48.120;11.562;2023-06-19T05:30:59;13.48;;;9.70;;
23498;SDS011;11926;48.120;11.562;2023-06-19T05:33:46;12.25;;;9.65;;
23498;SDS011;11926;48.120;11.562;2023-06-19T05:36:35;13.15;;;10.05;;
23498;SDS011;11926;48.120;11.562;2023-06-19T05:39:22;14.23;;;9.60;;
23498;SDS011;11926;48.120;11.562;2023-06-19T05:42:09;12.57;;;9.55;;
23498;SDS011;11926;48.120;11.562;2023-06-19T05:44:56;14.35;;;9.50;;
23498;SDS011;11926;48.120;11.562;2023-06-19T05:47:43;15.05;;;9.57;;
23498;SDS011;11926;48.120;11.562;2023-06-19T05:50:30;14.68;;;9.48;;
23498;SDS011;11926;48.120;11.562;2023-06-19T05:53:19;12.60;;;9.50;;
23498;SDS011;11926;48.120;11.562;2023-06-19T05:56:06;11.55;;;8.90;;
23498;SDS011;11926;48.120;11.562;2023-06-19T05:58:53;13.95;;;8.65;;
23498;SDS011;11926;48.120;11.562;2023-06-19T06:01:40;9.50;;;7.60;;
23498;SDS011;11926;48.120;11.562;2023-06-19T06:04:28;11.77;;;8.07;;
23498;SDS011;11926;48.120;11.562;2023-06-19T06:07:16;12.82;;;8.18;;
23498;SDS011;11926;48.120;11.562;2023-06-19T06:10:05;12.63;;;7.68;;
23498;SDS011;11926;48.120;11.562;2023-06-19T06:12:52;10.15;;;7.50;;
23498;SDS011;11926;48.120;11.562;2023-06-19T06:15:39;11.48;;;8.07;;
23498;SDS011;11926;48.120;11.562;2023-06-19T06:18:26;11.48;;;7.82;;
23498;SDS011;11926;48.120;11.562;2023-06-19T06:21:13;10.07;;;7.38;;
23498;SDS011;11926;48.120;11.562;2023-06-19T06:24:01;16.70;;;7.97;;
23498;SDS011;11926;48.120;11.562;2023-06-19T06:26:50;15.30;;;8.80;;
23498;SDS011;11926;48.120;11.562;2023-06-19T06:29:37;13.40;;;8.75;;
23498;SDS011;11926;48.120;11.562;2023-06-19T06:32:24;13.93;;;8.07;;
23498;SDS011;11926;48.120;11.562;2023-06-19T06:35:15;12.75;;;8.00;;
23498;SDS011;11926;48.120;11.562;2023-06-19T06:38:02;12.10;;;7.47;;
23498;SDS011;11926;48.120;11.562;2023-06-19T06:40:49;9.43;;;6.82;;
23498;SDS011;11926;48.120;11.562;2023-06-19T06:43:40;14.80;;;7.00;;
23498;SDS011;11926;48.120;11.562;2023-06-19T06:46:28;12.48;;;6.57;;
23498;SDS011;11926;48.120;11.562;2023-06-19T06:49:15;9.95;;;6.88;;
23498;SDS011;11926;48.120;11.562;2023-06-19T06:52:03;9.98;;;6.50;;
23498;SDS011;11926;48.120;11.562;2023-06-19T06:54:50;8.10;;;6.45;;
23498;SDS011;11926;48.120;11.562;2023-06-19T06:57:37;9.43;;;6.35;;
23498;SDS011;11926;48.120;11.562;2023-06-19T07:00:26;9.88;;;6.53;;
23498;SDS011;11926;48.120;11.562;2023-06-19T07:03:14;9.80;;;6.70;;
23498;SDS011;11926;48.120;11.562;2023-06-19T07:06:01;7.68;;;6.05;;
23498;SDS011;11926;48.120;11.562;2023-06-19T07:08:49;10.57;;;6.20;;
23498;SDS011;11926;48.120;11.562;2023-06-19T07:11:36;12.90;;;6.45;;
23498;SDS011;11926;48.120;11.562;2023-06-19T07:14:23;10.95;;;6.32;;
23498;SDS011;11926;48.120;11.562;2023-06-19T07:17:12;10.75;;;5.90;;
23498;SDS011;11926;48.120;11.562;2023-06-19T07:19:59;10.10;;;6.30;;
23498;SDS011;11926;48.120;11.562;2023-06-19T07:22:46;10.80;;;6.20;;
23498;SDS011;11926;48.120;11.562;2023-06-19T07:25:33;13.13;;;5.78;;
23498;SDS011;11926;48.120;11.562;2023-06-19T07:28:20;10.05;;;5.82;;
23498;SDS011;11926;48.120;11.562;2023-06-19T07:31:08;11.95;;;6.05;;
23498;SDS011;11926;48.120;11.562;2023-06-19T07:33:56;6.28;;;5.40;;
23498;SDS011;11926;48.120;11.562;2023-06-19T07:36:43;6.93;;;5.22;;
23498;SDS011;11926;48.120;11.562;2023-06-19T07:39:30;6.20;;;5.05;;
23498;SDS011;11926;48.120;11.562;2023-06-19T07:42:18;6.28;;;5.15;;
23498;SDS011;11926;48.120;11.562;2023-06-19T07:45:06;7.40;;;5.10;;
23498;SDS011;11926;48.120;11.562;2023-06-19T07:47:54;7.38;;;5.47;;
23498;SDS011;11926;48.120;11.562;2023-06-19T07:50:43;5.55;;;4.60;;
23498;SDS011;11926;48.120;11.562;2023-06-19T07:53:31;9.60;;;5.13;;
23498;SDS011;11926;48.120;11.562;2023-06-19T07:56:18;12.40;;;10.35;;
23498;SDS011;11926;48.120;11.562;2023-06-19T07:59:05;9.98;;;6.45;;
23498;SDS011;11926;48.120;11.562;2023-06-19T08:01:52;6.57;;;4.65;;
23498;SDS011;11926;48.120;11.562;2023-06-19T08:04:39;7.13;;;4.50;;
23498;SDS011;11926;48.120;11.562;2023-06-19T08:07:28;8.65;;;4.47;;
23498;SDS011;11926;48.120;11.562;2023-06-19T08:10:15;6.60;;;4.88;;
23498;SDS011;11926;48.120;11.562;2023-06-19T08:13:02;8.60;;;4.78;;
23498;SDS011;11926;48.120;11.562;2023-06-19T08:15:50;6.65;;;4.47;;
23498;SDS011;11926;48.120;11.562;2023-06-19T08:18:37;5.90;;;4.80;;
23498;SDS011;11926;48.120;11.562;2023-06-19T08:21:24;5.40;;;4.75;;
23498;SDS011;11926;48.120;11.562;2023-06-19T08:24:12;9.10;;;4.90;;
23498;SDS011;11926;48.120;11.562;2023-06-19T08:27:00;5.47;;;4.93;;
23498;SDS011;11926;48.120;11.562;2023-06-19T08:29:47;6.80;;;4.50;;
23498;SDS011;11926;48.120;11.562;2023-06-19T08:32:34;7.35;;;4.65;;
23498;SDS011;11926;48.120;11.562;2023-06-19T08:35:21;7.20;;;4.80;;
23498;SDS011;11926;48.120;11.562;2023-06-19T08:38:09;11.40;;;4.72;;
23498;SDS011;11926;48.120;11.562;2023-06-19T08:40:58;6.95;;;4.80;;
23498;SDS011;11926;48.120;11.562;2023-06-19T08:43:45;6.45;;;5.18;;
23498;SDS011;11926;48.120;11.562;2023-06-19T08:46:32;5.43;;;4.60;;
23498;SDS011;11926;48.120;11.562;2023-06-19T08:49:22;11.27;;;4.90;;
23498;SDS011;11926;48.120;11.562;2023-06-19T08:52:09;4.40;;;4.00;;
23498;SDS011;11926;48.120;11.562;2023-06-19T08:54:56;5.13;;;4.40;;
23498;SDS011;11926;48.120;11.562;2023-06-19T08:57:44;11.45;;;5.20;;
23498;SDS011;11926;48.120;11.562;2023-06-19T09:00:34;6.78;;;4.40;;
23498;SDS011;11926;48.120;11.562;2023-06-19T09:03:23;3.83;;;3.42;;
23498;SDS011;11926;48.120;11.562;2023-06-19T09:06:10;3.88;;;2.90;;
23498;SDS011;11926;48.120;11.562;2023-06-19T09:08:58;6.22;;;3.65;;
23498;SDS011;11926;48.120;11.562;2023-06-19T09:11:56;3.40;;;3.10;;
23498;SDS011;11926;48.120;11.562;2023-06-19T09:14:46;4.47;;;3.58;;
23498;SDS011;11926;48.120;11.562;2023-06-19T09:17:33;3.72;;;3.35;;
23498;SDS011;11926;48.120;11.562;2023-06-19T09:20:32;7.53;;;4.00;;
23498;SDS011;11926;48.120;11.562;2023-06-19T09:23:19;5.35;;;4.00;;
23498;SDS011;11926;48.120;11.562;2023-06-19T09:26:10;6.15;;;3.72;;
23498;SDS011;11926;48.120;11.562;2023-06-19T09:29:09;5.50;;;4.00;;
23498;SDS011;11926;48.120;11.562;2023-06-19T09:32:02;5.28;;;3.88;;
23498;SDS011;11926;48.120;11.562;2023-06-19T09:34:59;5.70;;;4.53;;
23498;SDS011;11926;48.120;11.562;2023-06-19T09:37:47;5.72;;;4.60;;
23498;SDS011;11926;48.120;11.562;2023-06-19T09:40:37;7.75;;;4.75;;
23498;SDS011;11926;48.120;11.562;2023-06-19T09:43:25;5.68;;;4.18;;
23498;SDS011;11926;48.120;11.562;2023-06-19T09:46:16;10.68;;;4.85;;
23498;SDS011;11926;48.120;11.562;2023-06-19T09:49:07;5.70;;;4.50;;
23498;SDS011;11926;48.120;11.562;2023-06-19T09:51:55;7.13;;;5.07;;
23498;SDS011;11926;48.120;11.562;2023-06-19T09:54:42;7.75;;;4.60;;
23498;SDS011;11926;48.120;11.562;2023-06-19T09:57:30;5.10;;;4.60;;
23498;SDS011;11926;48.120;11.562;2023-06-19T10:00:18;5.53;;;4.88;;
23498;SDS011;11926;48.120;11.562;2023-06-19T10:03:11;6.88;;;4.60;;
23498;SDS011;11926;48.120;11.562;2023-06-19T10:06:01;6.05;;;5.18;;
23498;SDS011;11926;48.120;11.562;2023-06-19T10:08:50;6.75;;;5.30;;
23498;SDS011;11926;48.120;11.562;2023-06-19T10:11:46;6.40;;;4.65;;
23498;SDS011;11926;48.120;11.562;2023-06-19T10:14:44;10.73;;;4.90;;
23498;SDS011;11926;48.120;11.562;2023-06-19T10:17:34;6.95;;;5.10;;
23498;SDS011;11926;48.120;11.562;2023-06-19T10:20:22;8.38;;;5.05;;
23498;SDS011;11926;48.120;11.562;2023-06-19T10:23:14;8.45;;;4.82;;
23498;SDS011;11926;48.120;11.562;2023-06-19T10:26:05;8.63;;;5.53;;
23498;SDS011;11926;48.120;11.562;2023-06-19T10:28:53;6.20;;;5.55;;
23498;SDS011;11926;48.120;11.562;2023-06-19T10:31:40;7.10;;;4.80;;
23498;SDS011;11926;48.120;11.562;2023-06-19T10:34:33;6.78;;;4.53;;
23498;SDS011;11926;48.120;11.562;2023-06-19T10:37:20;6.33;;;4.83;;
23498;SDS011;11926;48.120;11.562;2023-06-19T10:40:20;9.60;;;4.63;;
23498;SDS011;11926;48.120;11.562;2023-06-19T10:43:08;7.60;;;4.70;;
23498;SDS011;11926;48.120;11.562;2023-06-19T10:45:55;8.25;;;4.30;;
23498;SDS011;11926;48.120;11.562;2023-06-19T10:48:42;11.75;;;5.07;;
23498;SDS011;11926;48.120;11.562;2023-06-19T10:51:29;4.55;;;3.75;;
23498;SDS011;11926;48.120;11.562;2023-06-19T10:54:17;4.72;;;3.97;;
23498;SDS011;11926;48.120;11.562;2023-06-19T10:57:05;6.03;;;4.40;;
23498;SDS011;11926;48.120;11.562;2023-06-19T10:59:52;5.25;;;4.15;;
23498;SDS011;11926;48.120;11.562;2023-06-19T11:02:39;7.53;;;4.10;;
23498;SDS011;11926;48.120;11.562;2023-06-19T11:05:29;6.07;;;4.10;;
23498;SDS011;11926;48.120;11.562;2023-06-19T11:08:17;5.93;;;3.75;;
23498;SDS011;11926;48.120;11.562;2023-06-19T11:11:06;4.75;;;3.38;;
23498;SDS011;11926;48.120;11.562;2023-06-19T11:13:54;8.13;;;3.83;;
23498;SDS011;11926;48.120;11.562;2023-06-19T11:16:42;3.75;;;3.22;;
23498;SDS011;11926;48.120;11.562;2023-06-19T11:19:31;3.70;;;3.30;;
23498;SDS011;11926;48.120;11.562;2023-06-19T11:22:19;4.32;;;3.30;;
23498;SDS011;11926;48.120;11.562;2023-06-19T11:25:07;4.95;;;3.42;;
23498;SDS011;11926;48.120;11.562;2023-06-19T11:27:57;4.35;;;3.80;;
23498;SDS011;11926;48.120;11.562;2023-06-19T11:30:45;7.10;;;3.40;;
23498;SDS011;11926;48.120;11.562;2023-06-19T11:33:33;7.70;;;3.40;;
23498;SDS011;11926;48.120;11.562;2023-06-19T11:36:20;3.80;;;3.40;;
23498;SDS011;11926;48.120;11.562;2023-06-19T11:39:10;4.72;;;3.70;;
23498;SDS011;11926;48.120;11.562;2023-06-19T11:42:01;5.00;;;3.67;;
23498;SDS011;11926;48.120;11.562;2023-06-19T11:44:56;3.78;;;2.92;;
23498;SDS011;11926;48.120;11.562;2023-06-19T11:47:49;4.22;;;3.72;;
23498;SDS011;11926;48.120;11.562;2023-06-19T11:50:37;6.20;;;3.47;;
23498;SDS011;11926;48.120;11.562;2023-06-19T11:53:24;4.72;;;3.38;;
23498;SDS011;11926;48.120;11.562;2023-06-19T11:56:12;5.03;;;3.38;;
23498;SDS011;11926;48.120;11.562;2023-06-19T11:58:59;3.67;;;3.17;;
23498;SDS011;11926;48.120;11.562;2023-06-19T12:01:47;4.20;;;3.33;;
23498;SDS011;11926;48.120;11.562;2023-06-19T12:04:36;6.15;;;3.28;;
23498;SDS011;11926;48.120;11.562;2023-06-19T12:07:24;4.60;;;3.78;;
23498;SDS011;11926;48.120;11.562;2023-06-19T12:10:11;4.78;;;3.05;;
23498;SDS011;11926;48.120;11.562;2023-06-19T12:12:58;4.40;;;3.03;;
23498;SDS011;11926;48.120;11.562;2023-06-19T12:15:45;7.32;;;3.60;;
23498;SDS011;11926;48.120;11.562;2023-06-19T12:18:51;4.85;;;3.40;;
23498;SDS011;11926;48.120;11.562;2023-06-19T12:21:40;4.95;;;3.15;;
23498;SDS011;11926;48.120;11.562;2023-06-19T12:24:27;3.88;;;3.35;;
23498;SDS011;11926;48.120;11.562;2023-06-19T12:27:15;4.18;;;3.13;;
23498;SDS011;11926;48.120;11.562;2023-06-19T12:30:02;5.10;;;3.22;;
23498;SDS011;11926;48.120;11.562;2023-06-19T12:32:49;5.65;;;3.17;;
23498;SDS011;11926;48.120;11.562;2023-06-19T12:35:38;4.38;;;3.15;;
23498;SDS011;11926;48.120;11.562;2023-06-19T12:38:27;5.03;;;3.08;;
23498;SDS011;11926;48.120;11.562;2023-06-19T12:41:14;5.30;;;3.03;;
23498;SDS011;11926;48.120;11.562;2023-06-19T12:44:02;8.48;;;3.25;;
23498;SDS011;11926;48.120;11.562;2023-06-19T12:46:49;6.90;;;3.35;;
23498;SDS011;11926;48.120;11.562;2023-06-19T12:49:36;3.95;;;3.28;;
23498;SDS011;11926;48.120;11.562;2023-06-19T12:52:23;4.63;;;3.38;;
23498;SDS011;11926;48.120;11.562;2023-06-19T12:55:12;5.28;;;2.90;;
23498;SDS011;11926;48.120;11.562;2023-06-19T12:57:59;6.63;;;3.40;;
23498;SDS011;11926;48.120;11.562;2023-06-19T13:00:46;5.28;;;3.00;;
23498;SDS011;11926;48.120;11.562;2023-06-19T13:03:33;3.80;;;3.15;;
23498;SDS011;11926;48.120;11.562;2023-06-19T13:06:21;4.28;;;3.47;;
23498;SDS011;11926;48.120;11.562;2023-06-19T13:09:08;6.10;;;3.53;;
23498;SDS011;11926;48.120;11.562;2023-06-19T13:11:57;6.35;;;3.78;;
23498;SDS011;11926;48.120;11.562;2023-06-19T13:14:44;4.63;;;3.38;;
23498;SDS011;11926;48.120;11.562;2023-06-19T13:17:31;4.53;;;3.35;;
23498;SDS011;11926;48.120;11.562;2023-06-19T13:20:18;4.15;;;3.17;;
23498;SDS011;11926;48.120;11.562;2023-06-19T13:23:05;4.90;;;3.35;;
23498;SDS011;11926;48.120;11.562;2023-06-19T13:25:53;3.80;;;3.22;;
23498;SDS011;11926;48.120;11.562;2023-06-19T13:28:41;8.57;;;3.22;;
23498;SDS011;11926;48.120;11.562;2023-06-19T13:31:28;5.85;;;3.55;;
23498;SDS011;11926;48.120;11.562;2023-06-19T13:34:15;4.90;;;3.05;;
23498;SDS011;11926;48.120;11.562;2023-06-19T13:37:03;6.15;;;3.25;;
23498;SDS011;11926;48.120;11.562;2023-06-19T13:39:51;4.25;;;3.35;;
23498;SDS011;11926;48.120;11.562;2023-06-19T13:42:41;9.20;;;4.03;;
23498;SDS011;11926;48.120;11.562;2023-06-19T13:45:29;4.13;;;3.00;;
23498;SDS011;11926;48.120;11.562;2023-06-19T13:48:16;4.53;;;3.10;;
23498;SDS011;11926;48.120;11.562;2023-06-19T13:51:04;7.38;;;3.58;;
23498;SDS011;11926;48.120;11.562;2023-06-19T13:53:51;5.28;;;3.22;;
23498;SDS011;11926;48.120;11.562;2023-06-19T13:56:40;5.25;;;3.40;;
23498;SDS011;11926;48.120;11.562;2023-06-19T13:59:28;8.32;;;3.50;;
23498;SDS011;11926;48.120;11.562;2023-06-19T14:02:16;6.22;;;4.20;;
23498;SDS011;11926;48.120;11.562;2023-06-19T14:05:03;5.28;;;3.13;;
23498;SDS011;11926;48.120;11.562;2023-06-19T14:07:51;6.40;;;3.40;;
23498;SDS011;11926;48.120;11.562;2023-06-19T14:10:38;7.82;;;3.40;;
23498;SDS011;11926;48.120;11.562;2023-06-19T14:13:25;7.32;;;3.50;;
23498;SDS011;11926;48.120;11.562;2023-06-19T14:16:12;4.65;;;3.35;;
23498;SDS011;11926;48.120;11.562;2023-06-19T14:19:01;4.00;;;3.35;;
23498;SDS011;11926;48.120;11.562;2023-06-19T14:21:48;9.23;;;3.13;;
23498;SDS011;11926;48.120;11.562;2023-06-19T14:24:35;4.63;;;3.50;;
23498;SDS011;11926;48.120;11.562;2023-06-19T14:27:23;8.68;;;3.72;;
23498;SDS011;11926;48.120;11.562;2023-06-19T14:30:10;4.22;;;3.47;;
23498;SDS011;11926;48.120;11.562;2023-06-19T14:32:57;3.95;;;3.28;;
23498;SDS011;11926;48.120;11.562;2023-06-19T14:35:46;6.57;;;3.70;;
23498;SDS011;11926;48.120;11.562;2023-06-19T14:38:37;4.55;;;3.60;;
23498;SDS011;11926;48.120;11.562;2023-06-19T14:41:24;3.75;;;3.35;;
23498;SDS011;11926;48.120;11.562;2023-06-19T14:44:10;6.43;;;3.50;;
23498;SDS011;11926;48.120;11.562;2023-06-19T14:46:57;5.88;;;3.45;;
23498;SDS011;11926;48.120;11.562;2023-06-19T14:49:44;7.65;;;3.65;;
23498;SDS011;11926;48.120;11.562;2023-06-19T14:52:34;5.60;;;3.40;;
23498;SDS011;11926;48.120;11.562;2023-06-19T14:55:21;5.43;;;3.28;;
23498;SDS011;11926;48.120;11.562;2023-06-19T14:58:08;8.10;;;3.67;;
23498;SDS011;11926;48.120;11.562;2023-06-19T15:00:55;6.97;;;3.38;;
23498;SDS011;11926;48.120;11.562;2023-06-19T15:03:43;4.45;;;3.60;;
23498;SDS011;11926;48.120;11.562;2023-06-19T15:06:31;7.68;;;3.58;;
23498;SDS011;11926;48.120;11.562;2023-06-19T15:09:19;5.72;;;3.35;;
23498;SDS011;11926;48.120;11.562;2023-06-19T15:12:07;5.75;;;4.18;;
23498;SDS011;11926;48.120;11.562;2023-06-19T15:14:54;5.38;;;3.70;;
23498;SDS011;11926;48.120;11.562;2023-06-19T15:17:41;6.97;;;3.55;;
23498;SDS011;11926;48.120;11.562;2023-06-19T15:20:29;5.00;;;3.42;;
23498;SDS011;11926;48.120;11.562;2023-06-19T15:23:18;7.28;;;3.55;;
23498;SDS011;11926;48.120;11.562;2023-06-19T15:26:07;5.55;;;3.28;;
23498;SDS011;11926;48.120;11.562;2023-06-19T15:28:54;7.22;;;4.03;;
23498;SDS011;11926;48.120;11.562;2023-06-19T15:31:42;8.20;;;3.47;;
23498;SDS011;11926;48.120;11.562;2023-06-19T15:34:29;4.53;;;3.70;;
23498;SDS011;11926;48.120;11.562;2023-06-19T15:37:16;5.05;;;4.30;;
23498;SDS011;11926;48.120;11.562;2023-06-19T15:40:03;5.07;;;3.85;;
23498;SDS011;11926;48.120;11.562;2023-06-19T15:42:52;5.25;;;3.88;;
23498;SDS011;11926;48.120;11.562;2023-06-19T15:45:39;5.65;;;3.80;;
23498;SDS011;11926;48.120;11.562;2023-06-19T15:48:26;4.50;;;4.03;;
23498;SDS011;11926;48.120;11.562;2023-06-19T15:51:14;4.57;;;3.85;;
23498;SDS011;11926;48.120;11.562;2023-06-19T15:54:01;5.85;;;3.97;;
23498;SDS011;11926;48.120;11.562;2023-06-19T15:56:49;7.15;;;4.18;;
23498;SDS011;11926;48.120;11.562;2023-06-19T15:59:37;9.63;;;3.92;;
23498;SDS011;11926;48.120;11.562;2023-06-19T16:02:25;5.30;;;4.18;;
23498;SDS011;11926;48.120;11.562;2023-06-19T16:05:12;6.82;;;4.38;;
23498;SDS011;11926;48.120;11.562;2023-06-19T16:07:59;7.20;;;3.97;;
23498;SDS011;11926;48.120;11.562;2023-06-19T16:10:46;5.07;;;4.15;;
23498;SDS011;11926;48.120;11.562;2023-06-19T16:13:33;11.63;;;4.72;;
23498;SDS011;11926;48.120;11.562;2023-06-19T16:16:22;5.40;;;3.70;;
23498;SDS011;11926;48.120;11.562;2023-06-19T16:19:08;6.88;;;4.50;;
23498;SDS011;11926;48.120;11.562;2023-06-19T16:21:55;7.40;;;4.30;;
23498;SDS011;11926;48.120;11.562;2023-06-19T16:24:43;5.15;;;4.30;;
23498;SDS011;11926;48.120;11.562;2023-06-19T16:27:30;4.88;;;4.30;;
23498;SDS011;11926;48.120;11.562;2023-06-19T16:30:17;10.40;;;4.10;;